Time;durP1;ratioP1;P1;durP2;ratioP2;P2;SDS_P1;SDS_P2;PMS_P1;PMS_P2;Temp;Humidity;BMP_temperature;BMP_pressure;BME280_temperature;BME280_humidity;BME280_pressure;Samples;Min_cycle;Max_cycle;Signal;HPM_P1;HPM_P2
2023/09/08 05:16:56;;;;;;;;;;;;;;;;;;5006851;28;19925;-41
2023/09/08 05:19:22;;;;;;;;;;;;;;;;;;5007665;28;19918;-41
2023/09/08 05:21:48;;;;;;;;;;;;;;;;;;5011905;28;19937;-41
2023/09/08 05:24:14;;;;;;;;;;;;;;;;;;5018036;28;19952;-41
2023/09/08 05:26:40;;;;;;;;;;;;;;;;;;5030463;28;19920;-41
2023/09/08 05:29:06;;;;;;;;;;;;;;;;;;5018606;28;19913;-41
2023/09/08 05:31:32;;;;;;;;;;;;;;;;;;5011204;28;19917;-41
2023/09/08 05:33:58;;;;;;;;;;;;;;;;;;5011611;28;19916;-41
2023/09/08 05:36:24;;;;;;;;;;;;;;;;;;5011064;28;20028;-42
2023/09/08 05:38:50;;;;;;;;;;;;;;;;;;5010145;28;19913;-41
2023/09/08 05:41:15;;;;;;;;;;;;;;;;;;5009543;28;19948;-41
2023/09/08 05:43:41;;;;;;;;;;;;;;;;;;4991452;28;19910;-41
2023/09/08 05:46:07;;;;;;;;;;;;;;;;;;4993667;28;19921;-41
2023/09/08 05:48:33;;;;;;;;;;;;;;;;;;5003776;28;19913;-41
2023/09/08 05:50:59;;;;;;;;;;;;;;;;;;5009814;28;20280;-41
2023/09/08 05:53:25;;;;;;;;;;;;;;;;;;5011174;28;19909;-41
2023/09/08 05:55:52;;;;;;;;;;;;;;;;;;5009485;28;19980;-41
2023/09/08 05:58:18;;;;;;;;;;;;;;;;;;5010050;28;19913;-41
2023/09/08 06:00:44;;;;;;;;;;;;;;;;;;5010614;28;20319;-41
2023/09/08 06:03:10;;;;;;;;;;;;;;;;;;5008541;28;20581;-41
2023/09/08 06:05:36;;;;;;;;;;;;;;;;;;5010176;28;19910;-42
2023/09/08 06:08:01;;;;;;;;;;;;;;;;;;5008814;28;19914;-42
2023/09/08 06:10:27;;;;;;;;;;;;;;;;;;5010371;28;19909;-41
2023/09/08 06:12:53;;;;;;;;;;;;;;;;;;5006726;28;19956;-42
2023/09/08 06:15:19;;;;;;;;;;;;;;;;;;5009165;28;20269;-42
2023/09/08 06:17:46;;;;;;;;;;;;;;;;;;4999595;28;19925;-42
2023/09/08 06:20:12;;;;;;;;;;;;;;;;;;4991846;28;19916;-43
2023/09/08 06:22:38;;;;;;;;;;;;;;;;;;4994356;28;20004;-42
2023/09/08 06:25:04;;;;;;;;;;;;;;;;;;4997891;28;19914;-43
2023/09/08 06:27:30;;;;;;;;;;;;;;;;;;5008868;28;19914;-41
2023/09/08 06:29:57;;;;;;;;;;;;;;;;;;5003896;28;19917;-41
2023/09/08 06:32:22;;;;;;;;;;;;;;;;;;5006591;28;19917;-41
2023/09/08 06:34:48;;;;;;;;;;;;;;;;;;4997590;28;19963;-41
2023/09/08 06:37:14;;;;;;;;;;;;;;;;;;5008126;28;19963;-41
2023/09/08 06:39:40;;;;;;;;;;;;;;;;;;5001867;28;19928;-41
2023/09/08 06:42:06;;;;;;;;;;;;;;;;;;5003162;28;19932;-41
2023/09/08 06:44:32;;;;;;;;;;;;;;;;;;5025776;28;19941;-41
2023/09/08 06:46:58;;;;;;;;;;;;;;;;;;5009659;28;20292;-41
2023/09/08 06:49:23;;;;;;;;;;;;;;;;;;5010430;28;19909;-41
2023/09/08 06:51:49;;;;;;;;;;;;;;;;;;5006722;28;20527;-43
2023/09/08 06:54:15;;;;;;;;;;;;;;;;;;5011098;28;19909;-41
2023/09/08 06:56:41;;;;;;;;;;;;;;;;;;5009857;28;20252;-42
2023/09/08 06:59:07;;;;;;;;;;;;;;;;;;5003606;28;19913;-41
2023/09/08 07:01:33;;;;;;;;;;;;;;;;;;5006254;28;19982;-41
2023/09/08 07:03:59;;;;;;;;;;;;;;;;;;4990672;28;19910;-41
2023/09/08 07:06:25;;;;;;;;;;;;;;;;;;4990130;28;20946;-41
2023/09/08 07:08:51;;;;;;;;;;;;;;;;;;4995207;28;19918;-41
2023/09/08 07:11:16;;;;;;;;;;;;;;;;;;4994143;28;20292;-41
2023/09/08 07:13:42;;;;;;;;;;;;;;;;;;5003495;28;20245;-43
2023/09/08 07:16:08;;;;;;;;;;;;;;;;;;5007765;28;19913;-42
2023/09/08 07:18:35;;;;;;;;;;;;;;;;;;5006963;28;19917;-42
2023/09/08 07:21:01;;;;;;;;;;;;;;;;;;5010409;28;19910;-41
2023/09/08 07:23:27;;;;;;;;;;;;;;;;;;5011689;28;19915;-42
2023/09/08 07:25:53;;;;;;;;;;;;;;;;;;5013125;28;20394;-42
2023/09/08 07:28:19;;;;;;;;;;;;;;;;;;5008791;28;19964;-42
2023/09/08 07:30:45;;;;;;;;;;;;;;;;;;5001198;28;19914;-42
2023/09/08 07:33:11;;;;;;;;;;;;;;;;;;5013250;28;19949;-42
2023/09/08 07:35:37;;;;;;;;;;;;;;;;;;5015427;28;20422;-41
2023/09/08 07:38:03;;;;;;;;;;;;;;;;;;5033314;28;19959;-42
2023/09/08 07:40:28;;;;;;;;;;;;;;;;;;5032706;28;20276;-42
2023/09/08 07:42:54;;;;;;;;;;;;;;;;;;5033153;28;19951;-42
2023/09/08 07:45:20;;;;;;;;;;;;;;;;;;5032753;28;19963;-43
2023/09/08 07:47:46;;;;;;;;;;;;;;;;;;5016715;28;20388;-42
2023/09/08 07:50:12;;;;;;;;;;;;;;;;;;5011328;28;19953;-41
2023/09/08 07:52:38;;;;;;;;;;;;;;;;;;5012901;28;19936;-41
2023/09/08 07:55:04;;;;;;;;;;;;;;;;;;5012918;28;19917;-41
2023/09/08 07:57:30;;;;;;;;;;;;;;;;;;5012831;28;19955;-41
2023/09/08 07:59:56;;;;;;;;;;;;;;;;;;5012860;28;19931;-41
2023/09/08 08:02:22;;;;;;;;;;;;;;;;;;5012913;28;19909;-41
2023/09/08 08:04:48;;;;;;;;;;;;;;;;;;5012859;28;19920;-41
2023/09/08 08:07:13;;;;;;;;;;;;;;;;;;5018206;28;19916;-41
2023/09/08 08:09:39;;;;;;;;;;;;;;;;;;5032479;28;19967;-41
2023/09/08 08:12:05;;;;;;;;;;;;;;;;;;5032612;28;19920;-41
2023/09/08 08:14:31;;;;;;;;;;;;;;;;;;5032539;28;19910;-41
2023/09/08 08:16:57;;;;;;;;;;;;;;;;;;5032253;28;20456;-41
2023/09/08 08:19:23;;;;;;;;;;;;;;;;;;5032406;28;19909;-42
2023/09/08 08:21:49;;;;;;;;;;;;;;;;;;5032215;28;19940;-41
2023/09/08 08:24:16;;;;;;;;;;;;;;;;;;5019458;28;20430;-41
2023/09/08 08:26:42;;;;;;;;;;;;;;;;;;5012582;28;19917;-41
2023/09/08 08:29:07;;;;;;;;;;;;;;;;;;5012900;28;19949;-41
2023/09/08 08:31:33;;;;;;;;;;;;;;;;;;5012118;28;19957;-41
2023/09/08 08:33:59;;;;;;;;;;;;;;;;;;5011939;28;19956;-42
2023/09/08 08:36:25;;;;;;;;;;;;;;;;;;5011125;28;20375;-41
2023/09/08 08:38:51;;;;;;;;;;;;;;;;;;5011423;28;19917;-42
2023/09/08 08:41:17;;;;;;;;;;;;;;;;;;5012148;28;20373;-41
2023/09/08 08:43:44;;;;;;;;;;;;;;;;;;5012254;28;19917;-41
2023/09/08 08:46:10;;;;;;;;;;;;;;;;;;5012038;28;19917;-41
2023/09/08 08:48:36;;;;;;;;;;;;;;;;;;5022558;28;19913;-41
2023/09/08 08:51:02;;;;;;;;;;;;;;;;;;5008193;28;19937;-43
2023/09/08 08:53:28;;;;;;;;;;;;;;;;;;5009153;28;20323;-41
2023/09/08 08:55:54;;;;;;;;;;;;;;;;;;5011974;28;19916;-41
2023/09/08 08:58:24;;;;;;;;;;;;;;;;;;5011139;28;19932;-41
2023/09/08 09:00:50;;;;;;;;;;;;;;;;;;5010479;28;19917;-41
2023/09/08 09:03:16;;;;;;;;;;;;;;;;;;5009995;28;20500;-41
2023/09/08 09:05:42;;;;;;;;;;;;;;;;;;4993898;28;19910;-42
2023/09/08 09:08:09;;;;;;;;;;;;;;;;;;5011695;28;19917;-42
2023/09/08 09:10:35;;;;;;;;;;;;;;;;;;5011876;28;19909;-41
2023/09/08 09:13:00;;;;;;;;;;;;;;;;;;5010543;28;19925;-41
2023/09/08 09:15:26;;;;;;;;;;;;;;;;;;5010286;28;19913;-41
2023/09/08 09:17:52;;;;;;;;;;;;;;;;;;4999401;28;20265;-41
2023/09/08 09:20:20;;;;;;;;;;;;;;;;;;5007989;28;19941;-40
2023/09/08 09:22:46;;;;;;;;;;;;;;;;;;4999427;28;19968;-40
2023/09/08 09:25:11;;;;;;;;;;;;;;;;;;5011449;28;19913;-40
2023/09/08 09:27:40;;;;;;;;;;;;;;;;;;5011794;28;19910;-40
2023/09/08 09:30:06;;;;;;;;;;;;;;;;;;5007451;28;19920;-40
2023/09/08 09:32:33;;;;;;;;;;;;;;;;;;5002373;28;20537;-40
2023/09/08 09:35:01;;;;;;;;;;;;;;;;;;5009970;28;19960;-40
2023/09/08 09:37:26;;;;;;;;;;;;;;;;;;5001296;28;19937;-40
2023/09/08 09:39:52;;;;;;;;;;;;;;;;;;5010054;28;20376;-40
2023/09/08 09:42:19;;;;;;;;;;;;;;;;;;5009888;28;19917;-41
2023/09/08 09:44:45;;;;;;;;;;;;;;;;;;5010228;28;20412;-41
2023/09/08 09:47:11;;;;;;;;;;;;;;;;;;5003785;28;19941;-40
2023/09/08 09:49:37;;;;;;;;;;;;;;;;;;4994034;28;19909;-40
2023/09/08 09:52:03;;;;;;;;;;;;;;;;;;4990179;28;19924;-40
2023/09/08 09:54:28;;;;;;;;;;;;;;;;;;4990247;28;19960;-40
2023/09/08 09:56:54;;;;;;;;;;;;;;;;;;4972609;28;19916;-40
2023/09/08 09:59:20;;;;;;;;;;;;;;;;;;4990123;28;20357;-40
2023/09/08 10:01:46;;;;;;;;;;;;;;;;;;4990288;28;19917;-40
2023/09/08 10:04:14;;;;;;;;;;;;;;;;;;5009412;28;19909;-41
2023/09/08 10:06:41;;;;;;;;;;;;;;;;;;4994082;28;19914;-40
2023/09/08 10:09:13;;;;;;;;;;;;;;;;;;5009365;28;19944;-41
2023/09/08 10:11:39;;;;;;;;;;;;;;;;;;4999170;28;19982;-40
2023/09/08 10:14:05;;;;;;;;;;;;;;;;;;4994345;28;20301;-41
2023/09/08 10:16:31;;;;;;;;;;;;;;;;;;4995484;28;19928;-41
2023/09/08 10:18:57;;;;;;;;;;;;;;;;;;5006419;28;19932;-41
2023/09/08 10:21:23;;;;;;;;;;;;;;;;;;5006972;28;19993;-41
2023/09/08 10:23:53;;;;;;;;;;;;;;;;;;5007319;28;20292;-41
2023/09/08 10:26:18;;;;;;;;;;;;;;;;;;4992445;28;19921;-41
2023/09/08 10:28:44;;;;;;;;;;;;;;;;;;4979259;28;19910;-41
2023/09/08 10:31:10;;;;;;;;;;;;;;;;;;5004702;28;19953;-42
2023/09/08 10:33:36;;;;;;;;;;;;;;;;;;5003176;28;19917;-41
2023/09/08 10:36:03;;;;;;;;;;;;;;;;;;5008984;28;19913;-41
2023/09/08 10:38:29;;;;;;;;;;;;;;;;;;5007378;28;19920;-41
2023/09/08 10:40:55;;;;;;;;;;;;;;;;;;5009533;28;19909;-41
2023/09/08 10:43:21;;;;;;;;;;;;;;;;;;4995181;28;20336;-41
2023/09/08 10:45:46;;;;;;;;;;;;;;;;;;4994341;28;19961;-42
2023/09/08 10:48:14;;;;;;;;;;;;;;;;;;5007393;28;20272;-41
2023/09/08 10:50:40;;;;;;;;;;;;;;;;;;5002298;28;19914;-41
2023/09/08 10:53:06;;;;;;;;;;;;;;;;;;4996644;28;20299;-42
2023/09/08 10:55:32;;;;;;;;;;;;;;;;;;5000969;28;19914;-41
2023/09/08 10:57:59;;;;;;;;;;;;;;;;;;5007892;28;19914;-41
2023/09/08 11:00:25;;;;;;;;;;;;;;;;;;5013613;28;20406;-41
2023/09/08 11:02:51;;;;;;;;;;;;;;;;;;5012586;28;20011;-42
2023/09/08 11:05:18;;;;;;;;;;;;;;;;;;5011417;28;19929;-42
2023/09/08 11:07:44;;;;;;;;;;;;;;;;;;5006560;28;19941;-41
2023/09/08 11:10:10;;;;;;;;;;;;;;;;;;5000434;28;19918;-42
2023/09/08 11:12:36;;;;;;;;;;;;;;;;;;5019880;28;19917;-42
2023/09/08 11:15:04;;;;;;;;;;;;;;;;;;4994733;28;19914;-42
2023/09/08 11:17:30;;;;;;;;;;;;;;;;;;5001561;28;19918;-41
2023/09/08 11:19:56;;;;;;;;;;;;;;;;;;5004418;28;19955;-41
2023/09/08 11:22:23;;;;;;;;;;;;;;;;;;5002779;28;19917;-41
2023/09/08 11:24:49;;;;;;;;;;;;;;;;;;5005680;28;19917;-41
2023/09/08 11:27:15;;;;;;;;;;;;;;;;;;5010201;28;20016;-41
2023/09/08 11:29:41;;;;;;;;;;;;;;;;;;5011468;28;19965;-42
2023/09/08 11:32:07;;;;;;;;;;;;;;;;;;5008224;28;19917;-41
2023/09/08 11:34:33;;;;;;;;;;;;;;;;;;5010533;28;19917;-42
2023/09/08 11:36:59;;;;;;;;;;;;;;;;;;4992984;28;19921;-42
2023/09/08 11:39:25;;;;;;;;;;;;;;;;;;4992426;28;20013;-42
2023/09/08 11:41:51;;;;;;;;;;;;;;;;;;5005237;28;19920;-41
2023/09/08 11:44:17;;;;;;;;;;;;;;;;;;4989855;28;19914;-42
2023/09/08 11:46:43;;;;;;;;;;;;;;;;;;4990751;28;19969;-42
2023/09/08 11:49:09;;;;;;;;;;;;;;;;;;4990540;28;19956;-42
2023/09/08 11:51:35;;;;;;;;;;;;;;;;;;4989890;28;19914;-43
2023/09/08 11:54:00;;;;;;;;;;;;;;;;;;4989935;28;20381;-41
2023/09/08 11:56:26;;;;;;;;;;;;;;;;;;4989806;28;19910;-42
2023/09/08 11:58:52;;;;;;;;;;;;;;;;;;4989821;28;20325;-42
2023/09/08 12:01:18;;;;;;;;;;;;;;;;;;4989673;28;19913;-42
2023/09/08 12:03:44;;;;;;;;;;;;;;;;;;4990130;28;20009;-42
2023/09/08 12:06:10;;;;;;;;;;;;;;;;;;4990421;28;19910;-43
2023/09/08 12:08:36;;;;;;;;;;;;;;;;;;4989494;28;19914;-42
2023/09/08 12:11:01;;;;;;;;;;;;;;;;;;4989659;28;19910;-41
2023/09/08 12:13:27;;;;;;;;;;;;;;;;;;4989467;28;19909;-42
2023/09/08 12:15:53;;;;;;;;;;;;;;;;;;4988971;28;20343;-42
2023/09/08 12:18:19;;;;;;;;;;;;;;;;;;4989685;28;19909;-43
2023/09/08 12:20:45;;;;;;;;;;;;;;;;;;4989447;28;20456;-42
2023/09/08 12:23:11;;;;;;;;;;;;;;;;;;4989940;28;19914;-41
2023/09/08 12:25:37;;;;;;;;;;;;;;;;;;4988908;28;19909;-43
2023/09/08 12:28:03;;;;;;;;;;;;;;;;;;4989537;28;19969;-42
2023/09/08 12:30:34;;;;;;;;;;;;;;;;;;4989275;28;19914;-43
2023/09/08 12:33:00;;;;;;;;;;;;;;;;;;4987955;28;20273;-42
2023/09/08 12:35:26;;;;;;;;;;;;;;;;;;4988999;28;20359;-42
2023/09/08 12:37:52;;;;;;;;;;;;;;;;;;4989676;28;19956;-43
2023/09/08 12:40:18;;;;;;;;;;;;;;;;;;4989012;28;19964;-43
2023/09/08 12:42:44;;;;;;;;;;;;;;;;;;4989857;28;20446;-43
2023/09/08 12:45:10;;;;;;;;;;;;;;;;;;4988606;28;20189;-42
2023/09/08 12:47:36;;;;;;;;;;;;;;;;;;4988894;28;19913;-42
2023/09/08 12:50:02;;;;;;;;;;;;;;;;;;4988965;28;20327;-42
2023/09/08 12:52:28;;;;;;;;;;;;;;;;;;4988846;28;19921;-43
2023/09/08 12:54:54;;;;;;;;;;;;;;;;;;4989142;28;20376;-42
2023/09/08 12:57:20;;;;;;;;;;;;;;;;;;4988544;28;19941;-42
2023/09/08 12:59:46;;;;;;;;;;;;;;;;;;4988984;28;19910;-42
2023/09/08 13:02:12;;;;;;;;;;;;;;;;;;4989329;28;20376;-42
2023/09/08 13:04:38;;;;;;;;;;;;;;;;;;4988647;28;20246;-43
2023/09/08 13:07:04;;;;;;;;;;;;;;;;;;4988679;28;19916;-43
2023/09/08 13:09:30;;;;;;;;;;;;;;;;;;4988314;28;19937;-44
2023/09/08 13:11:55;;;;;;;;;;;;;;;;;;4988892;28;19921;-43
2023/09/08 13:14:21;;;;;;;;;;;;;;;;;;4990309;28;19994;-42
2023/09/08 13:16:47;;;;;;;;;;;;;;;;;;5000523;28;20008;-42
2023/09/08 13:19:13;;;;;;;;;;;;;;;;;;5008446;28;19996;-43
2023/09/08 13:21:39;;;;;;;;;;;;;;;;;;5007117;28;20292;-42
2023/09/08 13:24:05;;;;;;;;;;;;;;;;;;5007732;28;19909;-42
2023/09/08 13:26:31;;;;;;;;;;;;;;;;;;5007382;28;19952;-43
2023/09/08 13:28:57;;;;;;;;;;;;;;;;;;5007842;28;19936;-43
2023/09/08 13:31:22;;;;;;;;;;;;;;;;;;5008257;28;19920;-42
2023/09/08 13:33:48;;;;;;;;;;;;;;;;;;5007944;28;19917;-42
2023/09/08 13:36:14;;;;;;;;;;;;;;;;;;5007541;28;20014;-44
2023/09/08 13:38:40;;;;;;;;;;;;;;;;;;5007522;28;19935;-43
2023/09/08 13:41:06;;;;;;;;;;;;;;;;;;5007480;28;19909;-43
2023/09/08 13:43:32;;;;;;;;;;;;;;;;;;5007411;28;19956;-42
2023/09/08 13:45:58;;;;;;;;;;;;;;;;;;5007329;28;19960;-42
2023/09/08 13:48:24;;;;;;;;;;;;;;;;;;5007917;28;19963;-42
2023/09/08 13:50:49;;;;;;;;;;;;;;;;;;5007378;28;19963;-43
2023/09/08 13:53:15;;;;;;;;;;;;;;;;;;5007259;28;19913;-44
2023/09/08 13:55:41;;;;;;;;;;;;;;;;;;5007509;28;19936;-42
2023/09/08 13:58:07;;;;;;;;;;;;;;;;;;5007278;28;19988;-43
2023/09/08 14:00:33;;;;;;;;;;;;;;;;;;5007209;28;19909;-43
2023/09/08 14:02:59;;;;;;;;;;;;;;;;;;5007275;28;19932;-43
2023/09/08 14:05:25;;;;;;;;;;;;;;;;;;5007711;28;20130;-43
2023/09/08 14:07:51;;;;;;;;;;;;;;;;;;5007180;28;20295;-44
2023/09/08 14:10:17;;;;;;;;;;;;;;;;;;4989548;28;19913;-43
2023/09/08 14:12:42;;;;;;;;;;;;;;;;;;5006875;28;19938;-42
2023/09/08 14:15:08;;;;;;;;;;;;;;;;;;5007185;28;19917;-43
2023/09/08 14:17:34;;;;;;;;;;;;;;;;;;5007308;28;20422;-44
2023/09/08 14:20:00;;;;;;;;;;;;;;;;;;5007331;28;19914;-43
2023/09/08 14:22:26;;;;;;;;;;;;;;;;;;5007600;28;20372;-42
2023/09/08 14:24:54;;;;;;;;;;;;;;;;;;4989642;28;20306;-42
2023/09/08 14:27:20;;;;;;;;;;;;;;;;;;5006722;28;19910;-42
2023/09/08 14:29:45;;;;;;;;;;;;;;;;;;5007072;28;19999;-42
2023/09/08 14:32:11;;;;;;;;;;;;;;;;;;5007883;28;19913;-43
2023/09/08 14:34:37;;;;;;;;;;;;;;;;;;5011220;28;19910;-43
2023/09/08 14:37:03;;;;;;;;;;;;;;;;;;5011256;28;20356;-43
2023/09/08 14:39:29;;;;;;;;;;;;;;;;;;5011646;28;19975;-42
2023/09/08 14:41:55;;;;;;;;;;;;;;;;;;5011287;28;19910;-43
2023/09/08 14:44:22;;;;;;;;;;;;;;;;;;5010790;28;19959;-42
2023/09/08 14:46:48;;;;;;;;;;;;;;;;;;5010624;28;20312;-42
2023/09/08 14:49:15;;;;;;;;;;;;;;;;;;5011340;28;19916;-43
2023/09/08 14:51:41;;;;;;;;;;;;;;;;;;5010514;28;20012;-42
2023/09/08 14:54:07;;;;;;;;;;;;;;;;;;5010828;28;20012;-43
2023/09/08 14:56:32;;;;;;;;;;;;;;;;;;5010464;28;19905;-42
2023/09/08 14:58:59;;;;;;;;;;;;;;;;;;5011360;28;19909;-43
2023/09/08 15:01:25;;;;;;;;;;;;;;;;;;5008737;28;20153;-42
2023/09/08 15:03:51;;;;;;;;;;;;;;;;;;5003518;28;19921;-43
2023/09/08 15:06:17;;;;;;;;;;;;;;;;;;5009037;28;19914;-42
2023/09/08 15:08:45;;;;;;;;;;;;;;;;;;4996125;28;20285;-43
2023/09/08 15:11:11;;;;;;;;;;;;;;;;;;4991668;28;19913;-43
2023/09/08 15:13:37;;;;;;;;;;;;;;;;;;4996126;28;19916;-42
2023/09/08 15:16:03;;;;;;;;;;;;;;;;;;5010031;28;20296;-44
2023/09/08 15:18:29;;;;;;;;;;;;;;;;;;5010434;28;19983;-43
2023/09/08 15:20:55;;;;;;;;;;;;;;;;;;5003471;28;20007;-43
2023/09/08 15:23:21;;;;;;;;;;;;;;;;;;5007320;28;19917;-42
2023/09/08 15:25:47;;;;;;;;;;;;;;;;;;5007836;28;19922;-43
2023/09/08 15:28:13;;;;;;;;;;;;;;;;;;5014831;28;20119;-43
2023/09/08 15:30:38;;;;;;;;;;;;;;;;;;5017702;28;20375;-42
2023/09/08 15:33:06;;;;;;;;;;;;;;;;;;5009514;28;19960;-43
2023/09/08 15:35:32;;;;;;;;;;;;;;;;;;5006436;28;20510;-42
2023/09/08 15:37:58;;;;;;;;;;;;;;;;;;5008685;28;19960;-42
2023/09/08 15:40:24;;;;;;;;;;;;;;;;;;5008650;28;19936;-42
2023/09/08 15:42:51;;;;;;;;;;;;;;;;;;5010652;28;19937;-42
2023/09/08 15:45:17;;;;;;;;;;;;;;;;;;5010318;28;19981;-42
2023/09/08 15:47:43;;;;;;;;;;;;;;;;;;4999458;28;20043;-42
2023/09/08 15:50:10;;;;;;;;;;;;;;;;;;5010790;28;19916;-42
2023/09/08 15:52:36;;;;;;;;;;;;;;;;;;5006941;28;19918;-42
2023/09/08 15:55:02;;;;;;;;;;;;;;;;;;5008248;28;20288;-42
2023/09/08 15:57:28;;;;;;;;;;;;;;;;;;5010852;28;19909;-43
2023/09/08 15:59:54;;;;;;;;;;;;;;;;;;5011104;28;19920;-43
2023/09/08 16:02:20;;;;;;;;;;;;;;;;;;5009825;28;20008;-44
2023/09/08 16:04:46;;;;;;;;;;;;;;;;;;4993517;28;19921;-44
2023/09/08 16:07:12;;;;;;;;;;;;;;;;;;4991665;28;19932;-43
2023/09/08 16:09:38;;;;;;;;;;;;;;;;;;5009558;28;19909;-43
2023/09/08 16:12:04;;;;;;;;;;;;;;;;;;4992150;28;19960;-42
2023/09/08 16:14:30;;;;;;;;;;;;;;;;;;5006208;28;19937;-43
2023/09/08 16:16:56;;;;;;;;;;;;;;;;;;5009623;28;19921;-44
2023/09/08 16:19:22;;;;;;;;;;;;;;;;;;5002755;28;19932;-43
2023/09/08 16:21:48;;;;;;;;;;;;;;;;;;4994677;28;20470;-44
2023/09/08 16:24:13;;;;;;;;;;;;;;;;;;5002665;28;19913;-44
2023/09/08 16:26:39;;;;;;;;;;;;;;;;;;5008753;28;19913;-42
2023/09/08 16:29:05;;;;;;;;;;;;;;;;;;5010256;28;19909;-43
2023/09/08 16:31:31;;;;;;;;;;;;;;;;;;4989788;28;20371;-43
2023/09/08 16:33:57;;;;;;;;;;;;;;;;;;5004542;28;20008;-43
2023/09/08 16:36:23;;;;;;;;;;;;;;;;;;5009452;28;19935;-44
2023/09/08 16:38:49;;;;;;;;;;;;;;;;;;5011457;28;19917;-44
2023/09/08 16:41:15;;;;;;;;;;;;;;;;;;5009536;28;19956;-43
2023/09/08 16:43:41;;;;;;;;;;;;;;;;;;5012027;28;20285;-43
2023/09/08 16:46:06;;;;;;;;;;;;;;;;;;5018719;28;19936;-45
2023/09/08 16:48:32;;;;;;;;;;;;;;;;;;5009841;28;19921;-44
2023/09/08 16:50:58;;;;;;;;;;;;;;;;;;5009464;28;20388;-45
2023/09/08 16:53:24;;;;;;;;;;;;;;;;;;4993960;28;19924;-45
2023/09/08 16:55:50;;;;;;;;;;;;;;;;;;4996702;28;20530;-44
2023/09/08 16:58:16;;;;;;;;;;;;;;;;;;5007660;28;19910;-43
2023/09/08 17:00:42;;;;;;;;;;;;;;;;;;5008359;28;19914;-43
2023/09/08 17:03:08;;;;;;;;;;;;;;;;;;5004155;28;19921;-43
2023/09/08 17:05:34;;;;;;;;;;;;;;;;;;5009228;28;19937;-44
2023/09/08 17:08:00;;;;;;;;;;;;;;;;;;5005320;28;19909;-43
2023/09/08 17:10:25;;;;;;;;;;;;;;;;;;5009423;28;19918;-46
2023/09/08 17:12:51;;;;;;;;;;;;;;;;;;4991032;28;20480;-44
2023/09/08 17:15:17;;;;;;;;;;;;;;;;;;5004682;28;19913;-44
2023/09/08 17:17:43;;;;;;;;;;;;;;;;;;5005438;28;20377;-43
2023/09/08 17:20:09;;;;;;;;;;;;;;;;;;4992827;28;19914;-43
2023/09/08 17:22:35;;;;;;;;;;;;;;;;;;5004941;28;19914;-43
2023/09/08 17:25:01;;;;;;;;;;;;;;;;;;4999205;28;20529;-44
2023/09/08 17:27:27;;;;;;;;;;;;;;;;;;5002071;28;19917;-43
2023/09/08 17:29:53;;;;;;;;;;;;;;;;;;5025266;28;20380;-44
2023/09/08 17:32:19;;;;;;;;;;;;;;;;;;5005780;28;20328;-45
2023/09/08 17:34:45;;;;;;;;;;;;;;;;;;4995418;28;19957;-43
2023/09/08 17:37:11;;;;;;;;;;;;;;;;;;5004201;28;19921;-43
2023/09/08 17:39:37;;;;;;;;;;;;;;;;;;5007066;28;20012;-43
2023/09/08 17:42:02;;;;;;;;;;;;;;;;;;4995827;28;19918;-43
2023/09/08 17:44:28;;;;;;;;;;;;;;;;;;5001733;28;19917;-44
2023/09/08 17:46:54;;;;;;;;;;;;;;;;;;4991394;28;20054;-46
2023/09/08 17:49:20;;;;;;;;;;;;;;;;;;5001436;28;20308;-45
2023/09/08 17:51:46;;;;;;;;;;;;;;;;;;4991493;28;20024;-45
2023/09/08 17:54:12;;;;;;;;;;;;;;;;;;5005331;28;20388;-42
2023/09/08 17:56:39;;;;;;;;;;;;;;;;;;4999934;28;19913;-43
2023/09/08 17:59:05;;;;;;;;;;;;;;;;;;4993585;28;19917;-43
2023/09/08 18:01:30;;;;;;;;;;;;;;;;;;5002487;28;19987;-43
2023/09/08 18:03:56;;;;;;;;;;;;;;;;;;4970576;28;19918;-45
2023/09/08 18:06:22;;;;;;;;;;;;;;;;;;4994168;28;19920;-42
2023/09/08 18:08:51;;;;;;;;;;;;;;;;;;4999839;28;20015;-43
2023/09/08 18:11:19;;;;;;;;;;;;;;;;;;5005059;28;19956;-43
2023/09/08 18:13:45;;;;;;;;;;;;;;;;;;4991042;28;19913;-43
2023/09/08 18:16:11;;;;;;;;;;;;;;;;;;4998376;28;19918;-44
2023/09/08 18:18:37;;;;;;;;;;;;;;;;;;5006684;28;19909;-43
2023/09/08 18:21:03;;;;;;;;;;;;;;;;;;5006986;28;19913;-43
2023/09/08 18:23:30;;;;;;;;;;;;;;;;;;5005951;28;20380;-44
2023/09/08 18:25:56;;;;;;;;;;;;;;;;;;4999435;28;19917;-42
2023/09/08 18:28:22;;;;;;;;;;;;;;;;;;4972534;28;19921;-42
2023/09/08 18:30:48;;;;;;;;;;;;;;;;;;4991678;28;21199;-43
2023/09/08 18:33:13;;;;;;;;;;;;;;;;;;5005256;28;19984;-42
2023/09/08 18:35:41;;;;;;;;;;;;;;;;;;4998909;28;19943;-41
2023/09/08 18:38:08;;;;;;;;;;;;;;;;;;5004605;28;19962;-43
2023/09/08 18:40:34;;;;;;;;;;;;;;;;;;4976824;28;19914;-43
2023/09/08 18:43:00;;;;;;;;;;;;;;;;;;4996935;28;19995;-42
2023/09/08 18:45:26;;;;;;;;;;;;;;;;;;4995437;28;20384;-43
2023/09/08 18:47:52;;;;;;;;;;;;;;;;;;4994923;28;19921;-42
2023/09/08 18:50:18;;;;;;;;;;;;;;;;;;4993710;28;19917;-42
2023/09/08 18:52:44;;;;;;;;;;;;;;;;;;5004533;28;20008;-42
2023/09/08 18:55:09;;;;;;;;;;;;;;;;;;5006598;28;19909;-43
2023/09/08 18:57:35;;;;;;;;;;;;;;;;;;5004791;28;19921;-43
2023/09/08 19:00:03;;;;;;;;;;;;;;;;;;5000203;28;19913;-43
2023/09/08 19:02:30;;;;;;;;;;;;;;;;;;5000476;28;19914;-42
2023/09/08 19:04:55;;;;;;;;;;;;;;;;;;4986497;28;19914;-44
2023/09/08 19:07:21;;;;;;;;;;;;;;;;;;4993031;28;19914;-44
2023/09/08 19:09:48;;;;;;;;;;;;;;;;;;4982251;28;20412;-43
2023/09/08 19:12:14;;;;;;;;;;;;;;;;;;4989267;28;19913;-44
2023/09/08 19:14:40;;;;;;;;;;;;;;;;;;4987870;28;19910;-45
2023/09/08 19:17:06;;;;;;;;;;;;;;;;;;5005463;28;19995;-43
2023/09/08 19:19:32;;;;;;;;;;;;;;;;;;5006702;28;20293;-43
2023/09/08 19:21:57;;;;;;;;;;;;;;;;;;5008789;28;20335;-42
2023/09/08 19:24:23;;;;;;;;;;;;;;;;;;4997499;28;19925;-42
2023/09/08 19:26:49;;;;;;;;;;;;;;;;;;4989997;28;19984;-43
2023/09/08 19:29:15;;;;;;;;;;;;;;;;;;5003830;28;19997;-43
2023/09/08 19:31:41;;;;;;;;;;;;;;;;;;4994623;28;19943;-43
2023/09/08 19:34:07;;;;;;;;;;;;;;;;;;5007551;28;20395;-43
2023/09/08 19:36:33;;;;;;;;;;;;;;;;;;4989953;28;21745;-42
2023/09/08 19:38:59;;;;;;;;;;;;;;;;;;5000771;28;19920;-45
2023/09/08 19:41:26;;;;;;;;;;;;;;;;;;4985392;28;19914;-42
2023/09/08 19:43:52;;;;;;;;;;;;;;;;;;4994322;28;19920;-43
2023/09/08 19:46:17;;;;;;;;;;;;;;;;;;4991792;28;20008;-44
2023/09/08 19:48:43;;;;;;;;;;;;;;;;;;5005047;28;20376;-43
2023/09/08 19:51:09;;;;;;;;;;;;;;;;;;5015839;28;20012;-44
2023/09/08 19:53:35;;;;;;;;;;;;;;;;;;5007928;28;19917;-44
2023/09/08 19:56:01;;;;;;;;;;;;;;;;;;4992596;28;19926;-45
2023/09/08 19:58:28;;;;;;;;;;;;;;;;;;4997137;28;19913;-44
2023/09/08 20:00:54;;;;;;;;;;;;;;;;;;5005182;28;19965;-43
2023/09/08 20:03:20;;;;;;;;;;;;;;;;;;4971803;28;19957;-43
2023/09/08 20:05:45;;;;;;;;;;;;;;;;;;4989741;28;19914;-44
2023/09/08 20:08:11;;;;;;;;;;;;;;;;;;4985807;28;19913;-43
2023/09/08 20:10:37;;;;;;;;;;;;;;;;;;4999630;28;19914;-44
2023/09/08 20:13:03;;;;;;;;;;;;;;;;;;5003288;28;19918;-42
2023/09/08 20:15:29;;;;;;;;;;;;;;;;;;5006964;28;20340;-44
2023/09/08 20:17:55;;;;;;;;;;;;;;;;;;4994439;28;19918;-43
2023/09/08 20:20:21;;;;;;;;;;;;;;;;;;5003888;28;19967;-43
2023/09/08 20:22:47;;;;;;;;;;;;;;;;;;4995571;28;19921;-44
2023/09/08 20:25:13;;;;;;;;;;;;;;;;;;4990074;28;19968;-42
2023/09/08 20:27:38;;;;;;;;;;;;;;;;;;5004936;28;19932;-43
2023/09/08 20:30:04;;;;;;;;;;;;;;;;;;5007564;28;19909;-43
2023/09/08 20:32:30;;;;;;;;;;;;;;;;;;4996478;28;20408;-43
2023/09/08 20:34:56;;;;;;;;;;;;;;;;;;4999096;28;20381;-43
2023/09/08 20:37:22;;;;;;;;;;;;;;;;;;4972628;28;19914;-43
2023/09/08 20:39:48;;;;;;;;;;;;;;;;;;4994555;28;19914;-43
2023/09/08 20:42:14;;;;;;;;;;;;;;;;;;5007575;28;19914;-42
2023/09/08 20:44:40;;;;;;;;;;;;;;;;;;4998937;28;20459;-44
2023/09/08 20:47:06;;;;;;;;;;;;;;;;;;4971234;28;19910;-42
2023/09/08 20:49:32;;;;;;;;;;;;;;;;;;4988655;28;20369;-44
2023/09/08 20:51:57;;;;;;;;;;;;;;;;;;4992374;28;19922;-43
2023/09/08 20:54:23;;;;;;;;;;;;;;;;;;5006161;28;20359;-43
2023/09/08 20:56:49;;;;;;;;;;;;;;;;;;4998210;28;19964;-42
2023/09/08 20:59:16;;;;;;;;;;;;;;;;;;5006480;28;19918;-44
2023/09/08 21:01:42;;;;;;;;;;;;;;;;;;4973519;28;19936;-43
2023/09/08 21:04:08;;;;;;;;;;;;;;;;;;4992052;28;19909;-43
2023/09/08 21:06:37;;;;;;;;;;;;;;;;;;4990241;28;20362;-44
2023/09/08 21:09:03;;;;;;;;;;;;;;;;;;4997060;28;20007;-43
2023/09/08 21:11:29;;;;;;;;;;;;;;;;;;4996488;28;19914;-43
2023/09/08 21:13:54;;;;;;;;;;;;;;;;;;4999681;28;20412;-46
2023/09/08 21:16:20;;;;;;;;;;;;;;;;;;4998971;28;20011;-44
2023/09/08 21:18:46;;;;;;;;;;;;;;;;;;5008209;28;19913;-43
2023/09/08 21:21:12;;;;;;;;;;;;;;;;;;4981810;28;19913;-43
2023/09/08 21:23:39;;;;;;;;;;;;;;;;;;4996707;28;19971;-43
2023/09/08 21:26:05;;;;;;;;;;;;;;;;;;4987944;28;19914;-43
2023/09/08 21:28:31;;;;;;;;;;;;;;;;;;4988161;28;19910;-45
2023/09/08 21:30:57;;;;;;;;;;;;;;;;;;4987751;28;20396;-43
2023/09/08 21:33:23;;;;;;;;;;;;;;;;;;4999270;28;19918;-43
2023/09/08 21:35:49;;;;;;;;;;;;;;;;;;4993671;28;19913;-43
2023/09/08 21:38:16;;;;;;;;;;;;;;;;;;5003572;28;19918;-43
2023/09/08 21:40:42;;;;;;;;;;;;;;;;;;5004270;28;19948;-46
2023/09/08 21:43:08;;;;;;;;;;;;;;;;;;5004391;28;20425;-46
2023/09/08 21:45:34;;;;;;;;;;;;;;;;;;5007280;28;19944;-44
2023/09/08 21:48:00;;;;;;;;;;;;;;;;;;5006920;28;19960;-43
2023/09/08 21:50:27;;;;;;;;;;;;;;;;;;5006535;28;19916;-43
2023/09/08 21:52:53;;;;;;;;;;;;;;;;;;4987479;28;19961;-42